Time;durP1;ratioP1;P1;durP2;ratioP2;P2;SDS_P1;SDS_P2;PMS_P1;PMS_P2;Temp;Humidity;BMP_temperature;BMP_pressure;BME280_temperature;BME280_humidity;BME280_pressure;Samples;Min_cycle;Max_cycle;Signal;HPM_P1;HPM_P2
2022/10/01 00:01:35;;;;;;;;;;;;;;;16.18;100.00;99640.38;4434140;32;34993;-78
2022/10/01 00:04:22;;;;;;;;;;;;;;;16.24;100.00;99655.56;4431479;32;34307;-77
2022/10/01 00:07:09;;;;;;;;;;;;;;;13.75;100.00;99758.44;4451090;32;34526;-78
2022/10/01 00:09:55;;;;;;;;;;;;;;;12.57;100.00;99776.78;4450940;32;35894;-78
2022/10/01 00:12:46;;;;;;;;;;;;;;;13.53;100.00;99663.94;4450899;32;35810;-78
2022/10/01 00:15:32;;;;;;;;;;;;;;;14.41;100.00;99640.25;4438984;32;34048;-77
2022/10/01 00:18:18;;;;;;;;;;;;;;;14.94;100.00;99646.12;4438542;32;35686;-77
2022/10/01 00:21:06;;;;;;;;;;;;;;;15.14;100.00;99645.28;4450703;32;35294;-77
2022/10/01 00:23:59;;;;;;;;;;;;;;;14.77;100.00;99650.66;4450667;32;34871;-77
2022/10/01 00:26:46;;;;;;;;;;;;;;;14.15;100.00;99659.72;4450649;32;33772;-77
2022/10/01 00:29:33;;;;;;;;;;;;;;;14.60;100.00;99667.38;4450852;32;34539;-77
2022/10/01 00:32:19;;;;;;;;;;;;;;;15.17;100.00;99658.37;4450557;32;35313;-77
2022/10/01 00:35:08;;;;;;;;;;;;;;;15.47;100.00;99663.72;4438387;32;34587;-78
2022/10/01 00:37:54;;;;;;;;;;;;;;;15.45;100.00;99654.97;4438846;32;34854;-77
2022/10/01 00:40:41;;;;;;;;;;;;;;;14.59;100.00;99643.69;4438570;32;34901;-77
2022/10/01 00:43:28;;;;;;;;;;;;;;;15.46;100.00;99660.16;4450492;32;34830;-78
2022/10/01 00:46:19;;;;;;;;;;;;;;;15.81;100.00;99659.75;4450542;32;34984;-77
2022/10/01 00:49:08;;;;;;;;;;;;;;;15.89;100.00;99660.78;4438800;32;34027;-77
2022/10/01 00:51:54;;;;;;;;;;;;;;;15.89;100.00;99655.28;4438372;32;34942;-78
2022/10/01 00:54:44;;;;;;;;;;;;;;;15.25;100.00;99654.72;4438594;32;36190;-77
2022/10/01 00:57:29;;;;;;;;;;;;;;;15.61;100.00;99655.91;4438446;32;35173;-77
2022/10/01 01:00:16;;;;;;;;;;;;;;;16.05;100.00;99639.59;4438245;32;33964;-77
2022/10/01 01:03:02;;;;;;;;;;;;;;;15.99;100.00;99640.97;4438789;32;35440;-77
2022/10/01 01:05:49;;;;;;;;;;;;;;;16.24;100.00;99635.41;4438641;32;34843;-77
2022/10/01 01:08:34;;;;;;;;;;;;;;;16.37;100.00;99645.28;4438514;32;35740;-77
2022/10/01 01:11:33;;;;;;;;;;;;;;;16.34;100.00;99637.69;4438651;32;34859;-77
2022/10/01 01:14:22;;;;;;;;;;;;;;;15.98;100.00;99644.09;4438482;32;35445;-77
2022/10/01 01:17:11;;;;;;;;;;;;;;;15.71;100.00;99649.19;4438452;32;35201;-78
2022/10/01 01:20:06;;;;;;;;;;;;;;;14.85;100.00;99655.28;4438508;32;34507;-77
2022/10/01 01:23:10;;;;;;;;;;;;;;;14.71;100.00;99645.69;4438639;32;35000;-78
2022/10/01 01:26:10;;;;;;;;;;;;;;;15.24;100.00;99647.59;4438404;32;35441;-77
2022/10/01 01:28:56;;;;;;;;;;;;;;;14.05;100.00;99649.09;4449628;32;35279;-77
2022/10/01 01:31:45;;;;;;;;;;;;;;;14.74;100.00;99653.28;4438106;32;35587;-78
2022/10/01 01:34:31;;;;;;;;;;;;;;;15.63;100.00;99659.16;4438677;32;34597;-77
2022/10/01 01:37:17;;;;;;;;;;;;;;;15.84;100.00;99655.50;4438406;32;35663;-78
2022/10/01 01:40:04;;;;;;;;;;;;;;;15.62;100.00;99642.91;4450273;32;35196;-77
2022/10/01 01:42:50;;;;;;;;;;;;;;;15.65;100.00;99656.03;4438081;32;34980;-77
2022/10/01 01:45:38;;;;;;;;;;;;;;;15.54;100.00;99655.69;4436877;32;34231;-78
2022/10/01 01:48:25;;;;;;;;;;;;;;;16.06;100.00;99651.47;4438615;32;35768;-77
2022/10/01 01:51:28;;;;;;;;;;;;;;;15.98;100.00;99639.38;4438414;32;36220;-77
2022/10/01 01:54:13;;;;;;;;;;;;;;;15.86;100.00;99631.91;4438005;32;35083;-78
2022/10/01 01:57:01;;;;;;;;;;;;;;;15.79;100.00;99623.38;4449867;32;35061;-78
2022/10/01 01:59:46;;;;;;;;;;;;;;;16.16;100.00;99626.09;4450073;32;34966;-78
2022/10/01 02:02:34;;;;;;;;;;;;;;;16.25;100.00;99617.66;4449996;32;35716;-78
2022/10/01 02:05:21;;;;;;;;;;;;;;;16.31;100.00;99614.31;4438125;32;35770;-77
2022/10/01 02:08:11;;;;;;;;;;;;;;;15.97;100.00;99607.38;4438283;32;34131;-78
2022/10/01 02:10:58;;;;;;;;;;;;;;;16.30;100.00;99593.34;4450202;32;34507;-78
2022/10/01 02:13:47;;;;;;;;;;;;;;;15.93;100.00;99603.69;4449847;32;35283;-78
2022/10/01 02:16:52;;;;;;;;;;;;;;;16.08;100.00;99600.22;4450105;32;35526;-77
2022/10/01 02:19:44;;;;;;;;;;;;;;;16.01;100.00;99602.75;4450004;32;34906;-77
2022/10/01 02:22:34;;;;;;;;;;;;;;;15.98;100.00;99624.75;4448289;32;35018;-78
2022/10/01 02:25:25;;;;;;;;;;;;;;;16.13;100.00;99633.13;4434265;32;35259;-78
2022/10/01 02:28:13;;;;;;;;;;;;;;;15.30;100.00;99637.94;4437912;32;34897;-78
2022/10/01 02:30:59;;;;;;;;;;;;;;;14.79;100.00;99626.28;4427352;32;33805;-77
2022/10/01 02:33:45;;;;;;;;;;;;;;;15.14;100.00;99625.13;4437726;32;34930;-78
2022/10/01 02:36:31;;;;;;;;;;;;;;;15.72;100.00;99635.00;4449980;32;36005;-77
2022/10/01 02:39:18;;;;;;;;;;;;;;;15.55;100.00;99634.41;4438085;32;35166;-77
2022/10/01 02:42:04;;;;;;;;;;;;;;;15.13;100.00;99635.37;4437772;32;34074;-78
2022/10/01 02:44:50;;;;;;;;;;;;;;;15.64;100.00;99641.41;4438113;32;35627;-78
2022/10/01 02:47:40;;;;;;;;;;;;;;;15.77;100.00;99633.16;4437536;32;34769;-78
2022/10/01 02:50:28;;;;;;;;;;;;;;;16.13;100.00;99633.13;4437891;32;34569;-77
2022/10/01 02:53:34;;;;;;;;;;;;;;;16.04;100.00;99637.97;4437855;32;35029;-78
2022/10/01 02:57:21;;;;;;;;;;;;;;;16.10;100.00;99647.62;4437843;32;35016;-78
2022/10/01 02:59:33;;;;;;;;;;;;;;;15.93;100.00;99648.69;4440973;32;34941;-78
2022/10/01 03:02:19;;;;;;;;;;;;;;;16.01;100.00;99646.97;4449396;32;35791;-78
2022/10/01 03:05:06;;;;;;;;;;;;;;;15.59;100.00;99646.34;4426995;32;33805;-77
2022/10/01 03:07:52;;;;;;;;;;;;;;;15.43;100.00;99643.47;4437615;32;34922;-77
2022/10/01 03:10:38;;;;;;;;;;;;;;;15.98;100.00;99631.06;4449220;32;34732;-77
2022/10/01 03:13:30;;;;;;;;;;;;;;;15.52;100.00;99631.16;4449397;32;35000;-76
2022/10/01 03:16:16;;;;;;;;;;;;;;;16.10;100.00;99616.44;4449359;32;33687;-77
2022/10/01 03:19:03;;;;;;;;;;;;;;;15.87;100.00;99621.66;4449054;32;35490;-77
2022/10/01 03:21:48;;;;;;;;;;;;;;;14.90;100.00;99637.72;4437475;32;35257;-77
2022/10/01 03:24:35;;;;;;;;;;;;;;;15.43;100.00;99635.19;4449491;32;35389;-77
2022/10/01 03:27:21;;;;;;;;;;;;;;;15.73;100.00;99644.91;4449044;32;34144;-77
2022/10/01 03:30:07;;;;;;;;;;;;;;;16.12;100.00;99653.62;4430664;32;34936;-77
2022/10/01 03:32:53;;;;;;;;;;;;;;;15.99;100.00;99687.16;4437273;32;36164;-77
2022/10/01 03:35:40;;;;;;;;;;;;;;;15.77;100.00;99680.13;4448812;32;34987;-77
2022/10/01 03:38:25;;;;;;;;;;;;;;;15.64;100.00;99680.09;4448386;32;33868;-77
2022/10/01 03:41:12;;;;;;;;;;;;;;;16.27;100.00;99690.00;4449255;32;34552;-76
2022/10/01 03:43:58;;;;;;;;;;;;;;;15.89;100.00;99680.13;4449119;32;34823;-76
2022/10/01 03:46:45;;;;;;;;;;;;;;;15.82;100.00;99666.06;4448974;32;35870;-76
2022/10/01 03:49:31;;;;;;;;;;;;;;;16.05;100.00;99661.72;4448892;32;34314;-76
2022/10/01 03:52:17;;;;;;;;;;;;;;;16.10;100.00;99666.97;4448927;32;34939;-76
2022/10/01 03:55:04;;;;;;;;;;;;;;;16.39;100.00;99659.56;4436763;32;36064;-76
2022/10/01 03:57:51;;;;;;;;;;;;;;;15.97;100.00;99659.88;4436670;32;34916;-76
2022/10/01 04:00:36;;;;;;;;;;;;;;;15.97;100.00;99640.53;4448995;32;34985;-76
2022/10/01 04:03:23;;;;;;;;;;;;;;;15.97;100.00;99629.47;4436653;32;34511;-76
2022/10/01 04:06:09;;;;;;;;;;;;;;;16.22;100.00;99623.88;4448570;32;34913;-76
2022/10/01 04:08:55;;;;;;;;;;;;;;;15.67;100.00;99624.16;4435236;32;34843;-76
2022/10/01 04:11:41;;;;;;;;;;;;;;;16.02;100.00;99631.97;4435557;32;35023;-76
2022/10/01 04:14:27;;;;;;;;;;;;;;;16.17;100.00;99633.25;4435190;32;34896;-77
2022/10/01 04:17:13;;;;;;;;;;;;;;;15.62;100.00;99629.91;4437873;32;33945;-76
2022/10/01 04:19:59;;;;;;;;;;;;;;;15.85;100.00;99626.72;4427886;32;35646;-76
2022/10/01 04:22:45;;;;;;;;;;;;;;;15.60;100.00;99628.66;4450552;32;34695;-76
2022/10/01 04:25:32;;;;;;;;;;;;;;;15.86;100.00;99631.09;4450772;32;35011;-76
2022/10/01 04:28:17;;;;;;;;;;;;;;;16.07;100.00;99623.47;4438771;32;35835;-76
2022/10/01 04:34:09;;;;;;;;;;;;;;;16.18;100.00;99629.31;4450829;32;34911;-76
2022/10/01 04:36:55;;;;;;;;;;;;;;;16.11;100.00;99635.44;4450599;32;34924;-76
2022/10/01 04:39:41;;;;;;;;;;;;;;;15.93;100.00;99631.31;4450535;32;35268;-77
2022/10/01 04:42:27;;;;;;;;;;;;;;;16.08;100.00;99627.03;4438827;32;35038;-76
2022/10/01 04:45:13;;;;;;;;;;;;;;;15.99;100.00;99623.59;4438772;32;33188;-76
2022/10/01 04:47:59;;;;;;;;;;;;;;;16.22;100.00;99626.66;4450472;32;35847;-76
2022/10/01 04:50:44;;;;;;;;;;;;;;;16.27;100.00;99637.47;4443770;32;224604;-76
2022/10/01 04:53:31;;;;;;;;;;;;;;;16.10;100.00;99633.81;4450395;32;35010;-77
2022/10/01 04:56:16;;;;;;;;;;;;;;;16.21;100.00;99634.16;4450579;32;33704;-76
2022/10/01 04:59:03;;;;;;;;;;;;;;;16.19;100.00;99642.81;4436397;32;35338;-76
2022/10/01 05:01:49;;;;;;;;;;;;;;;16.06;100.00;99643.16;4438540;32;35257;-77
2022/10/01 05:04:35;;;;;;;;;;;;;;;16.21;100.00;99649.94;4450538;32;34860;-77
2022/10/01 05:07:21;;;;;;;;;;;;;;;16.38;100.00;99652.44;4450568;32;34253;-76
2022/10/01 05:10:09;;;;;;;;;;;;;;;15.63;100.00;99661.09;4450095;32;35007;-77
2022/10/01 05:12:56;;;;;;;;;;;;;;;16.33;100.00;99685.84;4446422;32;35297;-76
2022/10/01 05:15:43;;;;;;;;;;;;;;;15.93;100.00;99701.19;4450207;32;35024;-76
2022/10/01 05:18:29;;;;;;;;;;;;;;;15.62;100.00;99685.12;4427745;32;34228;-77
2022/10/01 05:21:15;;;;;;;;;;;;;;;15.67;100.00;99695.16;4449536;32;34654;-77
2022/10/01 05:24:01;;;;;;;;;;;;;;;16.21;100.00;99694.16;4438226;32;34797;-77
2022/10/01 05:26:48;;;;;;;;;;;;;;;15.59;100.00;99693.31;4438691;32;35401;-77
2022/10/01 05:29:40;;;;;;;;;;;;;;;15.70;100.00;99691.75;4449712;32;33653;-77
2022/10/01 05:32:26;;;;;;;;;;;;;;;15.92;100.00;99668.38;4445663;32;35429;-78
2022/10/01 05:35:15;;;;;;;;;;;;;;;16.09;100.00;99668.16;4442789;32;35167;-78
2022/10/01 05:38:02;;;;;;;;;;;;;;;16.15;100.00;99663.19;4427585;32;34605;-78
2022/10/01 05:40:48;;;;;;;;;;;;;;;16.23;100.00;99658.69;4450212;32;34631;-79
2022/10/01 05:43:35;;;;;;;;;;;;;;;16.16;100.00;99668.34;4450299;32;34980;-78
2022/10/01 05:46:21;;;;;;;;;;;;;;;15.64;100.00;99674.56;4438314;32;35224;-78
2022/10/01 05:49:07;;;;;;;;;;;;;;;16.03;100.00;99680.59;4450028;32;35765;-79
2022/10/01 05:51:53;;;;;;;;;;;;;;;15.32;100.00;99680.97;4438555;32;33884;-78
2022/10/01 05:54:40;;;;;;;;;;;;;;;15.73;100.00;99675.28;4438250;32;35876;-79
2022/10/01 05:57:26;;;;;;;;;;;;;;;16.13;100.00;99677.34;4449917;32;35193;-79
2022/10/01 06:00:12;;;;;;;;;;;;;;;16.00;100.00;99658.37;4450218;32;34996;-79
2022/10/01 06:02:59;;;;;;;;;;;;;;;16.01;100.00;99646.97;4438395;32;34056;-79
2022/10/01 06:05:45;;;;;;;;;;;;;;;16.47;100.00;99642.03;4437925;32;34892;-79
2022/10/01 06:08:35;;;;;;;;;;;;;;;16.54;100.00;99641.44;4450290;32;34717;-79
2022/10/01 06:11:23;;;;;;;;;;;;;;;16.41;100.00;99629.59;4438230;32;34765;-79
2022/10/01 06:14:09;;;;;;;;;;;;;;;16.31;100.00;99611.56;4437761;32;34766;-79
2022/10/01 06:16:55;;;;;;;;;;;;;;;16.35;100.00;99606.13;4450116;32;35665;-78
2022/10/01 06:19:41;;;;;;;;;;;;;;;16.24;100.00;99607.75;4450003;32;32860;-78
2022/10/01 06:22:27;;;;;;;;;;;;;;;16.54;100.00;99606.28;4449968;32;34952;-77
2022/10/01 06:25:14;;;;;;;;;;;;;;;15.89;100.00;99611.06;4449890;32;34887;-77
2022/10/01 06:28:00;;;;;;;;;;;;;;;16.49;100.00;99623.12;4449649;32;34974;-78
2022/10/01 06:30:47;;;;;;;;;;;;;;;16.56;100.00;99639.94;4449876;32;35127;-77
2022/10/01 06:33:33;;;;;;;;;;;;;;;16.41;100.00;99654.50;4436609;32;35140;-78
2022/10/01 06:36:19;;;;;;;;;;;;;;;16.17;100.00;99656.16;4437976;32;33118;-78
2022/10/01 06:39:04;;;;;;;;;;;;;;;16.15;100.00;99647.41;4449775;32;34994;-77
2022/10/01 06:41:50;;;;;;;;;;;;;;;16.32;100.00;99645.53;4427827;32;36253;-78
2022/10/01 06:44:37;;;;;;;;;;;;;;;16.49;100.00;99639.72;4449664;32;35739;-78
2022/10/01 06:47:23;;;;;;;;;;;;;;;16.19;100.00;99659.38;4449815;32;33967;-77
2022/10/01 06:50:09;;;;;;;;;;;;;;;16.51;100.00;99642.94;4427998;32;34872;-78
2022/10/01 06:52:55;;;;;;;;;;;;;;;16.72;100.00;99650.25;4426867;32;35830;-77
2022/10/01 06:55:42;;;;;;;;;;;;;;;16.54;100.00;99653.31;4427780;32;34903;-77
2022/10/01 06:58:28;;;;;;;;;;;;;;;16.68;100.00;99657.63;4449486;32;33621;-77
2022/10/01 07:01:18;;;;;;;;;;;;;;;16.37;100.00;99659.91;4428586;32;35764;-77
2022/10/01 07:04:04;;;;;;;;;;;;;;;16.45;100.00;99660.13;4449334;32;35309;-78
2022/10/01 07:06:51;;;;;;;;;;;;;;;16.17;100.00;99649.84;4449354;32;35541;-77
2022/10/01 07:09:37;;;;;;;;;;;;;;;16.60;100.00;99646.38;4433162;32;34027;-77
2022/10/01 07:12:23;;;;;;;;;;;;;;;16.75;100.00;99638.47;4449674;32;34544;-77
2022/10/01 07:15:09;;;;;;;;;;;;;;;16.96;100.00;99632.75;4437155;32;35218;-78
2022/10/01 07:17:54;;;;;;;;;;;;;;;16.85;100.00;99624.19;4449357;32;34979;-77
2022/10/01 07:20:41;;;;;;;;;;;;;;;16.79;100.00;99625.56;4449380;32;34172;-78
2022/10/01 07:23:27;;;;;;;;;;;;;;;16.73;100.00;99626.94;4437201;32;35410;-77
2022/10/01 07:26:13;;;;;;;;;;;;;;;16.67;100.00;99629.16;4437427;32;35215;-78
2022/10/01 07:28:58;;;;;;;;;;;;;;;16.95;100.00;99636.69;4437077;32;35046;-78
2022/10/01 07:31:44;;;;;;;;;;;;;;;16.65;100.00;99625.97;4449183;32;34346;-78
2022/10/01 07:34:30;;;;;;;;;;;;;;;16.38;100.00;99630.31;4448632;32;34419;-77
2022/10/01 07:37:16;;;;;;;;;;;;;;;16.46;100.00;99610.00;4448797;32;35276;-78
2022/10/01 07:40:02;;;;;;;;;;;;;;;16.86;100.00;99606.41;4449377;32;34811;-77
2022/10/01 07:42:53;;;;;;;;;;;;;;;16.78;100.00;99601.84;4448965;32;35071;-77
2022/10/01 07:45:39;;;;;;;;;;;;;;;17.22;100.00;99615.66;4427811;32;35825;-78
2022/10/01 07:48:26;;;;;;;;;;;;;;;17.01;100.00;99622.22;4451196;32;35175;-77
2022/10/01 07:51:12;;;;;;;;;;;;;;;16.71;100.00;99618.22;4439032;32;35691;-77
2022/10/01 07:53:58;;;;;;;;;;;;;;;16.29;100.00;99619.37;4438938;32;33724;-77
2022/10/01 07:56:44;;;;;;;;;;;;;;;16.96;100.00;99619.75;4450748;32;34963;-77
2022/10/01 07:59:32;;;;;;;;;;;;;;;16.76;100.00;99617.94;4438757;32;35769;-78
2022/10/01 08:02:18;;;;;;;;;;;;;;;16.81;100.00;99626.03;4438914;32;34928;-78
2022/10/01 08:05:16;;;;;;;;;;;;;;;16.51;100.00;99620.81;4433743;32;34072;-77
2022/10/01 08:08:05;;;;;;;;;;;;;;;16.84;100.00;99617.81;4433991;32;34845;-77
2022/10/01 08:10:52;;;;;;;;;;;;;;;16.81;100.00;99621.28;4429674;32;35214;-77
2022/10/01 08:13:37;;;;;;;;;;;;;;;16.98;100.00;99613.84;4450839;32;35750;-77
2022/10/01 08:16:27;;;;;;;;;;;;;;;17.04;100.00;99621.50;4450574;32;34128;-77
2022/10/01 08:19:14;;;;;;;;;;;;;;;16.58;100.00;99611.91;4450746;32;34997;-77
2022/10/01 08:22:00;;;;;;;;;;;;;;;16.69;100.00;99620.53;4450847;32;35830;-77
2022/10/01 08:24:46;;;;;;;;;;;;;;;16.98;100.00;99622.94;4450723;32;35336;-77
2022/10/01 08:27:33;;;;;;;;;;;;;;;17.26;100.00;99616.56;4427716;32;34347;-77
2022/10/01 08:30:18;;;;;;;;;;;;;;;16.91;100.00;99611.69;4450727;32;35600;-77
2022/10/01 08:33:05;;;;;;;25.00;17.52;;;;;;;16.88;100.00;99587.50;4450247;32;35304;-77
2022/10/01 08:35:51;;;;;;;27.62;19.70;;;;;;;16.56;100.00;99579.09;4428414;32;34149;-77
2022/10/01 08:38:39;;;;;;;25.95;18.45;;;;;;;16.91;100.00;99584.00;4450553;32;34629;-77
2022/10/01 08:41:31;;;;;;;25.67;18.15;;;;;;;17.14;100.00;99586.97;4437909;32;34721;-77
2022/10/01 08:44:20;;;;;;;26.98;19.50;;;;;;;17.36;100.00;99577.25;4438224;32;35932;-78
2022/10/01 08:47:13;;;;;;;26.87;18.85;;;;;;;17.09;100.00;99581.69;4431694;32;34127;-77
2022/10/01 08:50:04;;;;;;;29.02;20.98;;;;;;;16.98;100.00;99578.66;4431713;32;34079;-77
2022/10/01 08:52:54;;;;;;;29.70;19.37;;;;;;;17.25;100.00;99567.88;4417551;32;34557;-77
2022/10/01 08:55:41;;;;;;;30.37;19.92;;;;;;;17.54;100.00;99575.72;4438028;32;35007;-77
2022/10/01 08:58:34;;;;;;;32.30;20.92;;;;;;;16.98;100.00;99580.63;4449958;32;34669;-77
2022/10/01 09:01:21;;;;;;;28.52;20.05;;;;;;;17.43;100.00;99585.72;4424154;32;34191;-77
2022/10/01 09:04:07;;;;;;;31.02;20.83;;;;;;;17.43;100.00;99576.63;4450069;32;34729;-77
2022/10/01 09:07:04;;;;;;;27.58;19.80;;;;;;;17.63;100.00;99569.19;4429320;32;35760;-77
2022/10/01 09:09:59;;;;;;;30.70;20.25;;;;;;;17.35;100.00;99581.16;4438085;32;35217;-77
2022/10/01 09:13:07;;;;;;;30.33;20.17;;;;;;;17.46;100.00;99571.16;4437776;32;35094;-78
2022/10/01 09:16:05;;;;;;;31.85;19.37;;;;;;;17.94;100.00;99574.69;4424779;32;34643;-77
2022/10/01 09:19:14;;;;;;;26.20;18.67;;;;;;;18.11;100.00;99572.66;4449869;32;34362;-77
2022/10/01 09:22:16;;;;;;;30.65;22.15;;;;;;;18.12;100.00;99568.72;4431274;32;35623;-77
2022/10/01 09:25:12;;;;;;;28.87;19.73;;;;;;;18.23;100.00;99569.75;4428242;32;34811;-77
2022/10/01 09:28:03;;;;;;;26.15;19.52;;;;;;;18.78;100.00;99564.91;4438024;32;35521;-77
2022/10/01 09:31:03;;;;;;;26.73;18.65;;;;;;;18.83;100.00;99561.84;4430505;32;35033;-77
2022/10/01 09:34:02;;;;;;;27.40;18.25;;;;;;;18.88;100.00;99561.56;4427682;32;34504;-77
2022/10/01 09:37:04;;;;;;;26.70;20.10;;;;;;;19.22;100.00;99563.72;4437792;32;34016;-78
2022/10/01 09:40:13;;;;;;;29.52;19.58;;;;;;;19.41;100.00;99560.06;4438052;32;35588;-78
2022/10/01 09:43:02;;;;;;;26.83;20.02;;;;;;;18.93;100.00;99559.66;4438381;32;34947;-78
2022/10/01 09:45:51;;;;;;;25.45;19.10;;;;;;;19.09;100.00;99554.78;4427057;32;34660;-78
2022/10/01 09:48:56;;;;;;;24.55;18.23;;;;;;;19.31;100.00;99562.28;4437584;32;35138;-78
2022/10/01 09:51:45;;;;;;;29.08;19.85;;;;;;;17.57;100.00;99554.00;4426801;32;35633;-78
2022/10/01 09:54:42;;;;;;;25.45;18.30;;;;;;;18.11;100.00;99556.84;4437774;32;34459;-79
2022/10/01 09:57:42;;;;;;;23.98;17.90;;;;;;;17.71;100.00;99546.03;4426862;32;35383;-79
2022/10/01 10:00:29;;;;;;;24.70;16.77;;;;;;;17.47;100.00;99539.53;4437896;32;35138;-79
2022/10/01 10:03:29;;;;;;;23.95;17.90;;;;;;;18.81;100.00;99539.22;4437838;32;36107;-79
2022/10/01 10:06:16;;;;;;;25.15;17.50;;;;;;;19.15;100.00;99531.06;4437904;32;35713;-80
2022/10/01 10:09:03;;;;;;;20.75;16.52;;;;;;;19.52;100.00;99534.06;4449172;32;35543;-79
2022/10/01 10:11:49;;;;;;;22.08;17.62;;;;;;;19.15;100.00;99536.63;4449684;32;34953;-79
2022/10/01 10:14:39;;;;;;;24.98;18.08;;;;;;;18.03;100.00;99521.00;4449766;32;34420;-79
2022/10/01 10:17:26;;;;;;;30.27;23.08;;;;;;;18.72;100.00;99530.28;4427044;32;34910;-80
2022/10/01 10:20:24;;;;;;;25.92;20.60;;;;;;;18.51;100.00;99522.38;4437732;32;34849;-80
2022/10/01 10:23:19;;;;;;;25.20;18.90;;;;;;;18.33;100.00;99524.00;4437544;32;34434;-80
2022/10/01 10:26:06;;;;;;;21.30;15.18;;;;;;;19.38;100.00;99517.19;4437620;32;35580;-80
2022/10/01 10:28:52;;;;;;;19.87;15.63;;;;;;;18.98;100.00;99529.63;4449534;32;35973;-80
2022/10/01 10:31:43;;;;;;;14.23;11.18;;;;;;;19.48;100.00;99521.28;4449085;32;34943;-80
2022/10/01 10:34:39;;;;;;;18.60;13.62;;;;;;;19.10;100.00;99514.75;4437577;32;33807;-79
2022/10/01 10:37:30;;;;;;;18.48;14.55;;;;;;;19.52;100.00;99516.56;4437614;32;34207;-79
2022/10/01 10:40:19;;;;;;;14.18;11.68;;;;;;;18.32;100.00;99509.31;4437062;32;34502;-78
2022/10/01 10:43:17;;;;;;;13.93;10.38;;;;;;;19.23;100.00;99516.13;4437551;32;34274;-79
2022/10/01 10:46:05;;;;;;;11.20;8.80;;;;;;;19.31;100.00;99506.75;4437421;32;35219;-78
2022/10/01 10:48:58;;;;;;;9.27;6.85;;;;;;;19.11;100.00;99508.00;4449454;32;34634;-78
2022/10/01 10:51:55;;;;;;;13.07;9.80;;;;;;;18.12;100.00;99493.84;4436160;32;35061;-78
2022/10/01 10:54:46;;;;;;;12.77;10.23;;;;;;;18.36;100.00;99490.78;4428254;32;32853;-78
2022/10/01 10:57:33;;;;;;;10.48;7.87;;;;;;;18.71;100.00;99489.03;4448876;32;34221;-78
2022/10/01 11:00:24;;;;;;;9.13;7.12;;;;;;;19.24;100.00;99486.38;4428639;32;34739;-79
2022/10/01 11:03:14;;;;;;;9.90;7.30;;;;;;;18.64;100.00;99475.81;4428123;32;35691;-78
2022/10/01 11:06:11;;;;;;;11.02;9.45;;;;;;;18.59;100.00;99473.38;4447883;32;34747;-78
2022/10/01 11:09:00;;;;;;;9.43;6.60;;;;;;;18.97;100.00;99480.00;4429265;32;35119;-78
2022/10/01 11:12:06;;;;;;;9.45;5.55;;;;;;;18.94;100.00;99466.87;4428211;32;35585;-79
2022/10/01 11:14:56;;;;;;;;;;;;;;;18.63;100.00;99460.34;4431811;32;35566;-79
2022/10/01 11:18:02;;;;;;;;;;;;;;;18.78;100.00;99444.78;4437175;32;35851;-78
2022/10/01 11:20:55;;;;;;;;;;;;;;;18.40;100.00;99441.72;4438691;32;34314;-79
2022/10/01 11:23:52;;;;;;;;;;;;;;;19.18;100.00;99433.16;4451383;32;35461;-78
2022/10/01 11:27:09;;;;;;;;;;;;;;;19.75;100.00;99420.06;4439142;32;34678;-79
2022/10/01 11:30:13;;;;;;;;;;;;;;;19.53;100.00;99424.50;4415374;32;34912;-79
2022/10/01 11:33:15;;;;;;;;;;;;;;;18.79;100.00;99422.22;4451108;32;34153;-79
2022/10/01 11:36:20;;;;;;;;;;;;;;;19.33;100.00;99423.03;4451223;32;34396;-78
2022/10/01 11:39:09;;;;;;;;;;;;;;;19.07;100.00;99408.00;4451244;32;35224;-79
2022/10/01 11:42:05;;;;;;;;;;;;;;;19.40;100.00;99406.47;4428065;32;35478;-79
2022/10/01 11:44:52;;;;;;;;;;;;;;;19.72;100.00;99387.47;4451271;32;32997;-79
2022/10/01 11:47:50;;;;;;;;;;;;;;;19.86;100.00;99392.38;4438584;32;34674;-79
2022/10/01 11:50:39;;;;;;;;;;;;;;;19.47;100.00;99387.12;4439000;32;35820;-78
2022/10/01 11:53:29;;;;;;;;;;;;;;;20.70;100.00;99387.28;4438916;32;35824;-79
2022/10/01 11:59:48;;;;;;;;;;;;;;;20.29;100.00;99384.50;4430043;32;34430;-78
2022/10/01 12:02:37;;;;;;;;;;;;;;;20.54;100.00;99384.75;4439425;32;35209;-79
2022/10/01 12:05:24;;;;;;;;;;;;;;;19.32;100.00;99380.56;4427208;32;35774;-79
2022/10/01 12:08:12;;;;;;;;;;;;;;;19.17;100.00;99377.97;4438994;32;34920;-78
2022/10/01 12:11:16;;;;;;;;;;;;;;;19.64;100.00;99379.41;4439075;32;35028;-78
2022/10/01 12:14:04;;;;;;;;;;;;;;;19.01;100.00;99381.72;4438948;32;35341;-78
2022/10/01 12:16:52;;;;;;;;;;;;;;;19.48;100.00;99374.03;4439166;32;35245;-77
2022/10/01 12:19:40;;;;;;;;;;;;;;;19.28;100.00;99371.38;4427847;32;34775;-78
2022/10/01 12:22:27;;;;;;;;;;;;;;;19.54;100.00;99369.72;4438975;32;35983;-78
2022/10/01 12:25:13;;;;;;;;;;;;;;;18.95;100.00;99376.84;4438942;32;36057;-77
2022/10/01 12:28:02;;;;;;;;;;;;;;;18.82;100.00;99374.28;4438745;32;34607;-78
2022/10/01 12:30:50;;;;;;;;;;;;;;;18.64;100.00;99376.75;4438652;32;33737;-78
2022/10/01 12:33:39;;;;;;;;;;;;;;;18.85;100.00;99376.31;4424709;32;34551;-81
2022/10/01 12:36:35;;;;;;;;;;;;;;;18.00;100.00;99366.50;4438656;32;34922;-78
2022/10/01 12:39:42;;;;;;;;;;;;;;;18.58;100.00;99369.09;4438656;32;34884;-77
2022/10/01 12:42:50;;;;;;;;;;;;;;;18.79;100.00;99369.47;4450705;32;34025;-77
2022/10/01 12:45:36;;;;;;;;;;;;;;;18.93;100.00;99368.91;4438830;32;34494;-76
2022/10/01 12:48:24;;;;;;;;;;;;;;;18.45;100.00;99373.25;4450576;32;35241;-76
2022/10/01 12:51:13;;;;;;;;;;;;;;;18.50;100.00;99362.66;4438697;32;36565;-76
2022/10/01 12:54:20;;;;;;;;;;;;;;;18.47;100.00;99346.75;4437760;32;33849;-76
2022/10/01 12:57:08;;;;;;;;;;;;;;;18.75;100.00;99346.41;4450404;32;35667;-76
2022/10/01 13:00:01;;;;;;;;;;;;;;;18.87;100.00;99329.56;4450383;32;36218;-76
2022/10/01 13:03:07;;;;;;;;;;;;;;;19.00;100.00;99323.78;4438535;32;34937;-76
2022/10/01 13:05:59;;;;;;;;;;;;;;;20.01;100.00;99326.62;4438370;32;33743;-76
2022/10/01 13:09:02;;;;;;;;;;;;;;;20.06;100.00;99312.34;4450554;32;34741;-76
2022/10/01 13:11:57;;;;;;;;;;;;;;;20.81;100.00;99296.28;4438557;32;34745;-76
2022/10/01 13:14:43;;;;;;;6.37;3.12;;;;;;;21.28;97.56;99296.53;4437750;32;34735;-75
2022/10/01 13:17:38;;;;;;;6.95;3.60;;;;;;;20.36;99.61;99303.09;4437896;32;34626;-76
2022/10/01 13:20:29;;;;;;;8.77;4.95;;;;;;;19.69;100.00;99292.91;4438341;32;34711;-76
2022/10/01 13:23:50;;;;;;;5.53;3.60;;;;;;;19.53;100.00;99285.56;4438275;32;34629;-76
2022/10/01 13:26:56;;;;;;;7.47;3.60;;;;;;;20.45;100.00;99279.31;4407627;32;35272;-75
2022/10/01 13:29:51;;;;;;;7.15;3.10;;;;;;;20.07;100.00;99272.25;4450413;32;34139;-75
2022/10/01 13:32:59;;;;;;;5.50;2.87;;;;;;;20.83;100.00;99270.81;4438090;32;35655;-75
2022/10/01 13:35:56;;;;;;;6.43;3.72;;;;;;;20.95;99.61;99247.44;4448839;32;34034;-76
2022/10/01 13:38:46;;;;;;;8.00;5.35;;;;;;;20.93;100.00;99241.47;4426844;32;34309;-77
2022/10/01 13:41:33;;;;;;;13.68;8.10;;;;;;;18.81;100.00;99272.78;4448444;32;33342;-84
2022/10/01 13:44:27;;;;;;;12.82;7.82;;;;;;;18.15;100.00;99296.25;4437747;32;34210;-82
2022/10/01 13:47:17;;;;;;;15.07;10.40;;;;;;;17.95;100.00;99285.22;4436960;32;34116;-80
2022/10/01 13:50:18;;;;;;;20.85;13.50;;;;;;;17.94;100.00;99291.97;4424419;32;33940;-80
2022/10/01 13:53:14;;;;;;;21.70;16.55;;;;;;;17.50;100.00;99284.00;4446008;32;33316;-80
2022/10/01 13:56:02;;;;;;;21.50;15.10;;;;;;;17.71;100.00;99288.34;4428006;32;33742;-80
2022/10/01 13:58:48;;;;;;;19.58;14.30;;;;;;;17.10;100.00;99281.56;4436420;32;34531;-80
2022/10/01 14:01:40;;;;;;;19.73;15.48;;;;;;;18.14;100.00;99275.28;4425739;32;34637;-80
2022/10/01 14:04:39;;;;;;;16.77;12.32;;;;;;;19.16;100.00;99257.75;4436873;32;34054;-80
2022/10/01 14:07:29;;;;;;;19.25;13.60;;;;;;;19.26;100.00;99265.41;4448698;32;33529;-80
2022/10/01 14:10:17;;;;;;;17.45;12.02;;;;;;;18.52;100.00;99267.94;4425725;32;34835;-80
2022/10/01 14:16:10;;;;;;;22.10;16.95;;;;;;;18.53;100.00;99275.91;4438906;32;34472;-81